sensor_id;sensor_type;location;lat;lon;timestamp;temperature;humidity
14301;DHT22;7234;59.306;18.024;2023-03-23T18:03:25;8.90;99.90
14301;DHT22;7234;59.306;18.024;2023-03-23T18:05:57;8.90;99.90
14301;DHT22;7234;59.306;18.024;2023-03-23T18:08:26;8.90;99.90
14301;DHT22;7234;59.306;18.024;2023-03-23T18:10:55;8.80;99.90
14301;DHT22;7234;59.306;18.024;2023-03-23T18:13:28;8.70;99.90
14301;DHT22;7234;59.306;18.024;2023-03-23T18:15:57;8.70;99.90
14301;DHT22;7234;59.306;18.024;2023-03-23T18:18:33;8.70;99.90
14301;DHT22;7234;59.306;18.024;2023-03-23T18:21:03;8.70;99.90
14301;DHT22;7234;59.306;18.024;2023-03-23T18:23:36;8.60;99.90
14301;DHT22;7234;59.306;18.024;2023-03-23T18:26:15;8.40;99.90
14301;DHT22;7234;59.306;18.024;2023-03-23T18:28:45;8.30;99.90
14301;DHT22;7234;59.306;18.024;2023-03-23T18:31:30;8.30;99.90
14301;DHT22;7234;59.306;18.024;2023-03-23T18:34:08;8.10;99.90
14301;DHT22;7234;59.306;18.024;2023-03-23T18:36:37;8.10;99.90
14301;DHT22;7234;59.306;18.024;2023-03-23T18:39:21;8.10;99.90
14301;DHT22;7234;59.306;18.024;2023-03-23T18:41:56;8.00;99.90
14301;DHT22;7234;59.306;18.024;2023-03-23T18:44:36;7.90;99.90
14301;DHT22;7234;59.306;18.024;2023-03-23T18:47:06;7.90;99.90
14301;DHT22;7234;59.306;18.024;2023-03-23T18:49:35;8.00;99.90
14301;DHT22;7234;59.306;18.024;2023-03-23T18:52:06;8.00;99.90
14301;DHT22;7234;59.306;18.024;2023-03-23T18:54:34;8.00;99.90
14301;DHT22;7234;59.306;18.024;2023-03-23T19:00:27;7.80;99.90
14301;DHT22;7234;59.306;18.024;2023-03-23T20:31:43;7.60;99.90
14301;DHT22;7234;59.306;18.024;2023-03-23T20:34:23;7.60;99.90
14301;DHT22;7234;59.306;18.024;2023-03-23T20:37:15;7.60;99.90
14301;DHT22;7234;59.306;18.024;2023-03-23T20:53:43;7.50;99.90
14301;DHT22;7234;59.306;18.024;2023-03-23T20:56:34;7.50;99.90
14301;DHT22;7234;59.306;18.024;2023-03-23T20:59:13;7.40;99.90
14301;DHT22;7234;59.306;18.024;2023-03-23T21:01:47;7.50;99.90
14301;DHT22;7234;59.306;18.024;2023-03-23T21:04:21;7.60;99.90
14301;DHT22;7234;59.306;18.024;2023-03-23T21:07:15;7.50;99.90
14301;DHT22;7234;59.306;18.024;2023-03-23T21:09:59;7.50;99.90
14301;DHT22;7234;59.306;18.024;2023-03-23T21:12:39;7.50;99.90
14301;DHT22;7234;59.306;18.024;2023-03-23T21:15:15;7.50;99.90
14301;DHT22;7234;59.306;18.024;2023-03-23T21:17:52;7.50;99.90
14301;DHT22;7234;59.306;18.024;2023-03-23T21:20:32;7.50;99.90
14301;DHT22;7234;59.306;18.024;2023-03-23T21:23:10;7.60;99.90
14301;DHT22;7234;59.306;18.024;2023-03-23T21:25:51;7.60;99.90
14301;DHT22;7234;59.306;18.024;2023-03-23T21:28:25;7.60;99.90
14301;DHT22;7234;59.306;18.024;2023-03-23T21:31:12;7.60;99.90
14301;DHT22;7234;59.306;18.024;2023-03-23T21:33:50;7.60;99.90
14301;DHT22;7234;59.306;18.024;2023-03-23T21:36:27;7.60;99.90
14301;DHT22;7234;59.306;18.024;2023-03-23T21:38:59;7.60;99.90
14301;DHT22;7234;59.306;18.024;2023-03-23T21:41:34;7.60;99.90
14301;DHT22;7234;59.306;18.024;2023-03-23T21:44:20;7.60;99.90
14301;DHT22;7234;59.306;18.024;2023-03-23T21:46:51;7.60;99.90
